sensor_id;sensor_type;location;lat;lon;timestamp;P1;durP1;ratioP1;P2;durP2;ratioP2
39016;SDS011;24784;45.582;5.276;2024-01-10T00:01:58;90.05;;;42.95;;
39016;SDS011;24784;45.582;5.276;2024-01-10T00:04:24;91.20;;;46.10;;
39016;SDS011;24784;45.582;5.276;2024-01-10T00:06:50;89.88;;;44.60;;
39016;SDS011;24784;45.582;5.276;2024-01-10T00:09:16;92.45;;;45.33;;
39016;SDS011;24784;45.582;5.276;2024-01-10T00:11:41;87.70;;;44.13;;
39016;SDS011;24784;45.582;5.276;2024-01-10T00:14:07;97.97;;;46.17;;
39016;SDS011;24784;45.582;5.276;2024-01-10T00:16:34;95.55;;;46.38;;
39016;SDS011;24784;45.582;5.276;2024-01-10T00:19:00;87.57;;;45.88;;
39016;SDS011;24784;45.582;5.276;2024-01-10T00:21:26;92.78;;;43.90;;
39016;SDS011;24784;45.582;5.276;2024-01-10T00:23:52;87.38;;;44.22;;
39016;SDS011;24784;45.582;5.276;2024-01-10T00:26:18;91.53;;;45.22;;
39016;SDS011;24784;45.582;5.276;2024-01-10T00:28:43;92.03;;;45.17;;
39016;SDS011;24784;45.582;5.276;2024-01-10T00:31:11;90.65;;;44.35;;
39016;SDS011;24784;45.582;5.276;2024-01-10T00:33:37;86.93;;;44.47;;
39016;SDS011;24784;45.582;5.276;2024-01-10T00:36:03;91.38;;;43.83;;
39016;SDS011;24784;45.582;5.276;2024-01-10T00:38:29;85.03;;;41.80;;
39016;SDS011;24784;45.582;5.276;2024-01-10T00:40:55;98.15;;;45.30;;
39016;SDS011;24784;45.582;5.276;2024-01-10T00:43:21;91.50;;;45.33;;
39016;SDS011;24784;45.582;5.276;2024-01-10T00:45:47;84.25;;;43.20;;
39016;SDS011;24784;45.582;5.276;2024-01-10T00:48:12;86.55;;;43.33;;
39016;SDS011;24784;45.582;5.276;2024-01-10T00:50:39;87.55;;;43.50;;
39016;SDS011;24784;45.582;5.276;2024-01-10T00:53:05;91.43;;;45.60;;
39016;SDS011;24784;45.582;5.276;2024-01-10T00:55:30;93.53;;;47.65;;
39016;SDS011;24784;45.582;5.276;2024-01-10T00:57:56;92.60;;;45.28;;
39016;SDS011;24784;45.582;5.276;2024-01-10T01:00:22;90.70;;;44.08;;
39016;SDS011;24784;45.582;5.276;2024-01-10T01:02:48;86.70;;;43.67;;
39016;SDS011;24784;45.582;5.276;2024-01-10T01:05:13;96.03;;;44.60;;
39016;SDS011;24784;45.582;5.276;2024-01-10T01:07:39;91.50;;;45.97;;
39016;SDS011;24784;45.582;5.276;2024-01-10T01:10:05;91.65;;;45.63;;
39016;SDS011;24784;45.582;5.276;2024-01-10T01:12:33;95.30;;;45.78;;
39016;SDS011;24784;45.582;5.276;2024-01-10T01:14:59;88.20;;;45.35;;
39016;SDS011;24784;45.582;5.276;2024-01-10T01:17:25;90.63;;;45.83;;
39016;SDS011;24784;45.582;5.276;2024-01-10T01:19:50;93.97;;;44.35;;
39016;SDS011;24784;45.582;5.276;2024-01-10T01:22:16;95.30;;;46.97;;
39016;SDS011;24784;45.582;5.276;2024-01-10T01:24:41;93.43;;;46.08;;
39016;SDS011;24784;45.582;5.276;2024-01-10T01:27:07;92.65;;;44.10;;
39016;SDS011;24784;45.582;5.276;2024-01-10T01:29:33;91.00;;;44.50;;
39016;SDS011;24784;45.582;5.276;2024-01-10T01:31:58;98.57;;;47.20;;
39016;SDS011;24784;45.582;5.276;2024-01-10T01:34:24;100.15;;;46.90;;
39016;SDS011;24784;45.582;5.276;2024-01-10T01:36:49;92.53;;;46.40;;
39016;SDS011;24784;45.582;5.276;2024-01-10T01:39:16;93.38;;;45.17;;
39016;SDS011;24784;45.582;5.276;2024-01-10T01:41:43;92.68;;;46.28;;
39016;SDS011;24784;45.582;5.276;2024-01-10T01:44:08;93.18;;;44.85;;
39016;SDS011;24784;45.582;5.276;2024-01-10T01:46:34;92.70;;;46.60;;
39016;SDS011;24784;45.582;5.276;2024-01-10T01:49:00;95.18;;;46.17;;
39016;SDS011;24784;45.582;5.276;2024-01-10T01:51:26;94.00;;;46.05;;
39016;SDS011;24784;45.582;5.276;2024-01-10T01:53:54;91.88;;;45.83;;
39016;SDS011;24784;45.582;5.276;2024-01-10T01:56:20;88.90;;;43.95;;
39016;SDS011;24784;45.582;5.276;2024-01-10T01:58:46;91.90;;;44.72;;
39016;SDS011;24784;45.582;5.276;2024-01-10T02:01:15;87.60;;;43.85;;
39016;SDS011;24784;45.582;5.276;2024-01-10T02:03:41;85.60;;;44.08;;
39016;SDS011;24784;45.582;5.276;2024-01-10T02:06:07;88.45;;;43.95;;
39016;SDS011;24784;45.582;5.276;2024-01-10T02:08:33;90.55;;;45.03;;
39016;SDS011;24784;45.582;5.276;2024-01-10T02:10:59;88.00;;;43.53;;
39016;SDS011;24784;45.582;5.276;2024-01-10T02:13:26;86.53;;;43.50;;
39016;SDS011;24784;45.582;5.276;2024-01-10T02:15:52;89.72;;;42.90;;
39016;SDS011;24784;45.582;5.276;2024-01-10T02:18:19;95.03;;;44.97;;
39016;SDS011;24784;45.582;5.276;2024-01-10T02:20:45;87.25;;;42.63;;
39016;SDS011;24784;45.582;5.276;2024-01-10T02:23:11;88.32;;;44.08;;
39016;SDS011;24784;45.582;5.276;2024-01-10T02:25:37;86.88;;;43.40;;
39016;SDS011;24784;45.582;5.276;2024-01-10T02:28:04;85.78;;;42.53;;
39016;SDS011;24784;45.582;5.276;2024-01-10T02:30:30;94.82;;;44.33;;
39016;SDS011;24784;45.582;5.276;2024-01-10T02:32:55;87.45;;;43.22;;
39016;SDS011;24784;45.582;5.276;2024-01-10T02:35:21;97.10;;;44.67;;
39016;SDS011;24784;45.582;5.276;2024-01-10T02:37:46;89.22;;;43.90;;
39016;SDS011;24784;45.582;5.276;2024-01-10T02:40:15;87.93;;;42.50;;
39016;SDS011;24784;45.582;5.276;2024-01-10T02:42:41;84.63;;;43.00;;
39016;SDS011;24784;45.582;5.276;2024-01-10T02:45:07;87.22;;;44.45;;
39016;SDS011;24784;45.582;5.276;2024-01-10T02:47:32;92.30;;;44.55;;
39016;SDS011;24784;45.582;5.276;2024-01-10T02:49:58;89.22;;;44.22;;
39016;SDS011;24784;45.582;5.276;2024-01-10T02:52:24;93.72;;;44.15;;
39016;SDS011;24784;45.582;5.276;2024-01-10T02:54:49;87.85;;;44.85;;
39016;SDS011;24784;45.582;5.276;2024-01-10T02:57:15;94.38;;;43.65;;
39016;SDS011;24784;45.582;5.276;2024-01-10T02:59:40;89.55;;;42.58;;
39016;SDS011;24784;45.582;5.276;2024-01-10T03:02:06;84.10;;;43.28;;
39016;SDS011;24784;45.582;5.276;2024-01-10T03:04:32;82.60;;;41.83;;
39016;SDS011;24784;45.582;5.276;2024-01-10T03:06:57;92.85;;;42.67;;
39016;SDS011;24784;45.582;5.276;2024-01-10T03:09:23;91.28;;;42.97;;
39016;SDS011;24784;45.582;5.276;2024-01-10T03:11:49;90.13;;;43.40;;
39016;SDS011;24784;45.582;5.276;2024-01-10T03:14:14;92.70;;;44.60;;
39016;SDS011;24784;45.582;5.276;2024-01-10T03:16:40;90.28;;;43.53;;
39016;SDS011;24784;45.582;5.276;2024-01-10T03:19:06;92.60;;;46.00;;
39016;SDS011;24784;45.582;5.276;2024-01-10T03:21:31;92.10;;;41.65;;
39016;SDS011;24784;45.582;5.276;2024-01-10T03:23:57;94.55;;;44.95;;
39016;SDS011;24784;45.582;5.276;2024-01-10T03:26:24;93.93;;;44.38;;
39016;SDS011;24784;45.582;5.276;2024-01-10T03:28:50;88.90;;;42.40;;
39016;SDS011;24784;45.582;5.276;2024-01-10T03:31:16;95.97;;;44.50;;
39016;SDS011;24784;45.582;5.276;2024-01-10T03:33:42;93.22;;;43.97;;
39016;SDS011;24784;45.582;5.276;2024-01-10T03:36:10;92.25;;;43.40;;
39016;SDS011;24784;45.582;5.276;2024-01-10T03:38:38;101.10;;;44.90;;
39016;SDS011;24784;45.582;5.276;2024-01-10T03:41:04;86.70;;;42.08;;
39016;SDS011;24784;45.582;5.276;2024-01-10T03:43:30;93.10;;;44.17;;
39016;SDS011;24784;45.582;5.276;2024-01-10T03:45:55;93.43;;;44.00;;
39016;SDS011;24784;45.582;5.276;2024-01-10T03:48:22;88.47;;;42.70;;
39016;SDS011;24784;45.582;5.276;2024-01-10T03:50:48;89.65;;;43.67;;
39016;SDS011;24784;45.582;5.276;2024-01-10T03:53:13;93.88;;;45.03;;
39016;SDS011;24784;45.582;5.276;2024-01-10T03:55:39;89.50;;;44.72;;
39016;SDS011;24784;45.582;5.276;2024-01-10T03:58:04;95.88;;;44.72;;
39016;SDS011;24784;45.582;5.276;2024-01-10T04:00:30;98.25;;;43.85;;
39016;SDS011;24784;45.582;5.276;2024-01-10T04:02:56;90.80;;;44.90;;
39016;SDS011;24784;45.582;5.276;2024-01-10T04:05:22;104.07;;;47.85;;
39016;SDS011;24784;45.582;5.276;2024-01-10T04:07:49;90.53;;;42.88;;
39016;SDS011;24784;45.582;5.276;2024-01-10T04:10:15;102.47;;;46.17;;
39016;SDS011;24784;45.582;5.276;2024-01-10T04:12:41;106.35;;;47.08;;
39016;SDS011;24784;45.582;5.276;2024-01-10T04:15:07;99.63;;;45.63;;
39016;SDS011;24784;45.582;5.276;2024-01-10T04:17:33;95.45;;;45.35;;
39016;SDS011;24784;45.582;5.276;2024-01-10T04:19:59;103.75;;;46.42;;
39016;SDS011;24784;45.582;5.276;2024-01-10T04:22:25;100.40;;;45.88;;
39016;SDS011;24784;45.582;5.276;2024-01-10T04:24:51;91.32;;;43.35;;
39016;SDS011;24784;45.582;5.276;2024-01-10T04:27:17;100.93;;;47.42;;
39016;SDS011;24784;45.582;5.276;2024-01-10T04:29:45;99.93;;;45.22;;
39016;SDS011;24784;45.582;5.276;2024-01-10T04:32:11;102.72;;;45.88;;
39016;SDS011;24784;45.582;5.276;2024-01-10T04:34:36;99.95;;;45.28;;
39016;SDS011;24784;45.582;5.276;2024-01-10T04:37:02;101.65;;;47.63;;
39016;SDS011;24784;45.582;5.276;2024-01-10T04:39:28;104.60;;;47.08;;
39016;SDS011;24784;45.582;5.276;2024-01-10T04:41:54;98.78;;;44.95;;
39016;SDS011;24784;45.582;5.276;2024-01-10T04:44:20;101.43;;;46.50;;
39016;SDS011;24784;45.582;5.276;2024-01-10T04:46:45;99.45;;;45.40;;
39016;SDS011;24784;45.582;5.276;2024-01-10T04:49:11;101.65;;;47.38;;
39016;SDS011;24784;45.582;5.276;2024-01-10T04:51:37;102.28;;;46.28;;
39016;SDS011;24784;45.582;5.276;2024-01-10T04:54:02;103.20;;;46.05;;
39016;SDS011;24784;45.582;5.276;2024-01-10T04:56:28;110.43;;;47.47;;
39016;SDS011;24784;45.582;5.276;2024-01-10T04:58:54;103.88;;;46.60;;
39016;SDS011;24784;45.582;5.276;2024-01-10T05:01:19;102.22;;;47.08;;
39016;SDS011;24784;45.582;5.276;2024-01-10T05:03:45;102.07;;;45.22;;
39016;SDS011;24784;45.582;5.276;2024-01-10T05:06:11;103.45;;;47.15;;
39016;SDS011;24784;45.582;5.276;2024-01-10T05:08:36;101.53;;;46.30;;
39016;SDS011;24784;45.582;5.276;2024-01-10T05:11:02;107.07;;;45.78;;
39016;SDS011;24784;45.582;5.276;2024-01-10T05:13:28;103.95;;;46.33;;
39016;SDS011;24784;45.582;5.276;2024-01-10T05:15:54;105.47;;;46.00;;
39016;SDS011;24784;45.582;5.276;2024-01-10T05:18:20;110.00;;;48.28;;
39016;SDS011;24784;45.582;5.276;2024-01-10T05:20:46;102.03;;;46.28;;
39016;SDS011;24784;45.582;5.276;2024-01-10T05:23:12;104.75;;;46.50;;
39016;SDS011;24784;45.582;5.276;2024-01-10T05:25:38;102.45;;;44.17;;
39016;SDS011;24784;45.582;5.276;2024-01-10T05:28:03;99.03;;;44.38;;
39016;SDS011;24784;45.582;5.276;2024-01-10T05:30:30;101.22;;;45.63;;
39016;SDS011;24784;45.582;5.276;2024-01-10T05:32:56;102.40;;;46.58;;
39016;SDS011;24784;45.582;5.276;2024-01-10T05:35:23;106.55;;;46.25;;
39016;SDS011;24784;45.582;5.276;2024-01-10T05:37:50;108.28;;;46.63;;
39016;SDS011;24784;45.582;5.276;2024-01-10T05:40:16;109.10;;;47.13;;
39016;SDS011;24784;45.582;5.276;2024-01-10T05:42:43;99.50;;;46.28;;
39016;SDS011;24784;45.582;5.276;2024-01-10T05:45:11;106.50;;;46.83;;
39016;SDS011;24784;45.582;5.276;2024-01-10T05:47:37;111.28;;;47.13;;
39016;SDS011;24784;45.582;5.276;2024-01-10T05:50:03;107.57;;;45.80;;
39016;SDS011;24784;45.582;5.276;2024-01-10T05:52:32;101.45;;;46.10;;
39016;SDS011;24784;45.582;5.276;2024-01-10T05:54:58;102.35;;;46.85;;
39016;SDS011;24784;45.582;5.276;2024-01-10T05:57:26;107.90;;;46.20;;
39016;SDS011;24784;45.582;5.276;2024-01-10T05:59:52;109.75;;;48.17;;
39016;SDS011;24784;45.582;5.276;2024-01-10T06:02:21;107.93;;;46.92;;
39016;SDS011;24784;45.582;5.276;2024-01-10T06:04:47;104.55;;;46.75;;
39016;SDS011;24784;45.582;5.276;2024-01-10T06:07:13;107.72;;;46.17;;
39016;SDS011;24784;45.582;5.276;2024-01-10T06:09:39;104.85;;;47.08;;
39016;SDS011;24784;45.582;5.276;2024-01-10T06:12:05;105.78;;;47.38;;
39016;SDS011;24784;45.582;5.276;2024-01-10T06:14:31;114.13;;;49.15;;
39016;SDS011;24784;45.582;5.276;2024-01-10T06:16:57;104.57;;;46.83;;
39016;SDS011;24784;45.582;5.276;2024-01-10T06:19:24;109.70;;;45.15;;
39016;SDS011;24784;45.582;5.276;2024-01-10T06:21:50;114.93;;;48.22;;
39016;SDS011;24784;45.582;5.276;2024-01-10T06:24:17;110.57;;;47.40;;
39016;SDS011;24784;45.582;5.276;2024-01-10T06:26:43;113.22;;;48.40;;
39016;SDS011;24784;45.582;5.276;2024-01-10T06:29:08;110.70;;;47.60;;
39016;SDS011;24784;45.582;5.276;2024-01-10T06:31:34;108.57;;;48.30;;
39016;SDS011;24784;45.582;5.276;2024-01-10T06:34:00;112.45;;;47.95;;
39016;SDS011;24784;45.582;5.276;2024-01-10T06:36:25;108.05;;;47.55;;
39016;SDS011;24784;45.582;5.276;2024-01-10T06:38:51;118.22;;;46.50;;
39016;SDS011;24784;45.582;5.276;2024-01-10T06:41:16;117.78;;;48.42;;
39016;SDS011;24784;45.582;5.276;2024-01-10T06:43:42;125.22;;;48.97;;
39016;SDS011;24784;45.582;5.276;2024-01-10T06:46:08;113.47;;;46.65;;
39016;SDS011;24784;45.582;5.276;2024-01-10T06:48:35;118.28;;;48.67;;
39016;SDS011;24784;45.582;5.276;2024-01-10T06:51:01;115.88;;;48.53;;
39016;SDS011;24784;45.582;5.276;2024-01-10T06:53:26;115.63;;;49.40;;
39016;SDS011;24784;45.582;5.276;2024-01-10T06:55:52;111.78;;;46.65;;
39016;SDS011;24784;45.582;5.276;2024-01-10T06:58:18;114.63;;;47.53;;
39016;SDS011;24784;45.582;5.276;2024-01-10T07:00:43;119.32;;;47.45;;
39016;SDS011;24784;45.582;5.276;2024-01-10T07:03:09;109.90;;;48.58;;
39016;SDS011;24784;45.582;5.276;2024-01-10T07:05:34;116.22;;;47.42;;
39016;SDS011;24784;45.582;5.276;2024-01-10T07:08:00;118.47;;;47.95;;
39016;SDS011;24784;45.582;5.276;2024-01-10T07:10:31;117.28;;;48.05;;
39016;SDS011;24784;45.582;5.276;2024-01-10T07:12:56;118.57;;;49.97;;
39016;SDS011;24784;45.582;5.276;2024-01-10T07:15:22;118.95;;;51.15;;
39016;SDS011;24784;45.582;5.276;2024-01-10T07:17:48;116.85;;;49.90;;
39016;SDS011;24784;45.582;5.276;2024-01-10T07:20:14;133.32;;;55.38;;
39016;SDS011;24784;45.582;5.276;2024-01-10T07:22:39;131.40;;;57.67;;
39016;SDS011;24784;45.582;5.276;2024-01-10T07:25:07;131.32;;;54.97;;
39016;SDS011;24784;45.582;5.276;2024-01-10T07:27:39;131.55;;;52.10;;
39016;SDS011;24784;45.582;5.276;2024-01-10T07:30:08;118.15;;;51.63;;
39016;SDS011;24784;45.582;5.276;2024-01-10T07:32:41;122.53;;;49.97;;
39016;SDS011;24784;45.582;5.276;2024-01-10T07:35:08;129.13;;;51.88;;
39016;SDS011;24784;45.582;5.276;2024-01-10T07:37:38;122.85;;;51.85;;
39016;SDS011;24784;45.582;5.276;2024-01-10T07:40:04;128.23;;;51.78;;
39016;SDS011;24784;45.582;5.276;2024-01-10T07:42:32;135.55;;;52.95;;
39016;SDS011;24784;45.582;5.276;2024-01-10T07:44:58;132.88;;;52.53;;
39016;SDS011;24784;45.582;5.276;2024-01-10T07:47:24;138.30;;;51.00;;
39016;SDS011;24784;45.582;5.276;2024-01-10T07:49:50;123.70;;;50.85;;
39016;SDS011;24784;45.582;5.276;2024-01-10T07:52:16;129.82;;;52.53;;
39016;SDS011;24784;45.582;5.276;2024-01-10T07:54:42;124.78;;;50.20;;
39016;SDS011;24784;45.582;5.276;2024-01-10T07:57:07;142.68;;;57.00;;
39016;SDS011;24784;45.582;5.276;2024-01-10T07:59:33;147.00;;;58.50;;
39016;SDS011;24784;45.582;5.276;2024-01-10T08:01:59;137.93;;;58.20;;
39016;SDS011;24784;45.582;5.276;2024-01-10T08:04:28;176.85;;;67.55;;
39016;SDS011;24784;45.582;5.276;2024-01-10T08:06:54;160.35;;;67.13;;
39016;SDS011;24784;45.582;5.276;2024-01-10T08:09:20;151.27;;;63.00;;
39016;SDS011;24784;45.582;5.276;2024-01-10T08:11:46;150.57;;;61.30;;
39016;SDS011;24784;45.582;5.276;2024-01-10T08:14:13;140.88;;;56.85;;
39016;SDS011;24784;45.582;5.276;2024-01-10T08:16:39;143.27;;;55.97;;
39016;SDS011;24784;45.582;5.276;2024-01-10T08:19:04;137.48;;;56.58;;
39016;SDS011;24784;45.582;5.276;2024-01-10T08:21:30;126.05;;;51.92;;
39016;SDS011;24784;45.582;5.276;2024-01-10T08:23:56;117.78;;;52.30;;
39016;SDS011;24784;45.582;5.276;2024-01-10T08:26:22;121.18;;;52.58;;
39016;SDS011;24784;45.582;5.276;2024-01-10T08:28:48;127.75;;;52.28;;
39016;SDS011;24784;45.582;5.276;2024-01-10T08:31:16;117.75;;;48.88;;
39016;SDS011;24784;45.582;5.276;2024-01-10T08:33:42;119.60;;;50.05;;
39016;SDS011;24784;45.582;5.276;2024-01-10T08:36:07;116.90;;;50.20;;
39016;SDS011;24784;45.582;5.276;2024-01-10T08:38:34;117.57;;;50.42;;
39016;SDS011;24784;45.582;5.276;2024-01-10T08:41:01;114.93;;;51.10;;
39016;SDS011;24784;45.582;5.276;2024-01-10T08:43:28;129.55;;;54.90;;
39016;SDS011;24784;45.582;5.276;2024-01-10T08:45:54;127.78;;;51.90;;
39016;SDS011;24784;45.582;5.276;2024-01-10T08:48:19;130.02;;;53.45;;
39016;SDS011;24784;45.582;5.276;2024-01-10T08:50:45;125.53;;;50.78;;
39016;SDS011;24784;45.582;5.276;2024-01-10T08:53:11;137.85;;;53.78;;
39016;SDS011;24784;45.582;5.276;2024-01-10T08:55:36;135.00;;;53.25;;
39016;SDS011;24784;45.582;5.276;2024-01-10T08:58:02;137.85;;;54.17;;
39016;SDS011;24784;45.582;5.276;2024-01-10T09:00:28;129.95;;;52.03;;
39016;SDS011;24784;45.582;5.276;2024-01-10T09:02:54;117.82;;;49.97;;
39016;SDS011;24784;45.582;5.276;2024-01-10T09:05:20;137.25;;;52.97;;
39016;SDS011;24784;45.582;5.276;2024-01-10T09:07:46;129.88;;;53.08;;
39016;SDS011;24784;45.582;5.276;2024-01-10T09:10:12;132.63;;;53.05;;
39016;SDS011;24784;45.582;5.276;2024-01-10T09:12:38;131.63;;;54.83;;
39016;SDS011;24784;45.582;5.276;2024-01-10T09:15:04;144.20;;;54.22;;
39016;SDS011;24784;45.582;5.276;2024-01-10T09:17:30;135.77;;;55.78;;
39016;SDS011;24784;45.582;5.276;2024-01-10T09:19:55;129.27;;;52.38;;
39016;SDS011;24784;45.582;5.276;2024-01-10T09:22:21;131.50;;;53.53;;
39016;SDS011;24784;45.582;5.276;2024-01-10T09:24:47;144.57;;;56.10;;
39016;SDS011;24784;45.582;5.276;2024-01-10T09:27:12;137.18;;;53.25;;
39016;SDS011;24784;45.582;5.276;2024-01-10T09:29:38;127.97;;;51.90;;
39016;SDS011;24784;45.582;5.276;2024-01-10T09:32:03;132.60;;;53.55;;
39016;SDS011;24784;45.582;5.276;2024-01-10T09:34:29;141.38;;;58.15;;
39016;SDS011;24784;45.582;5.276;2024-01-10T09:36:56;137.75;;;55.30;;
39016;SDS011;24784;45.582;5.276;2024-01-10T09:39:22;129.85;;;54.38;;
39016;SDS011;24784;45.582;5.276;2024-01-10T09:41:49;130.15;;;52.42;;
39016;SDS011;24784;45.582;5.276;2024-01-10T09:44:16;122.82;;;50.88;;
39016;SDS011;24784;45.582;5.276;2024-01-10T09:46:52;137.40;;;52.13;;
39016;SDS011;24784;45.582;5.276;2024-01-10T09:49:19;133.43;;;52.78;;
39016;SDS011;24784;45.582;5.276;2024-01-10T09:51:48;128.00;;;49.65;;
39016;SDS011;24784;45.582;5.276;2024-01-10T09:54:15;128.13;;;50.28;;
39016;SDS011;24784;45.582;5.276;2024-01-10T09:56:41;127.13;;;49.42;;
39016;SDS011;24784;45.582;5.276;2024-01-10T09:59:07;134.88;;;50.40;;
39016;SDS011;24784;45.582;5.276;2024-01-10T10:01:38;130.10;;;50.40;;
39016;SDS011;24784;45.582;5.276;2024-01-10T10:04:04;122.63;;;49.22;;
39016;SDS011;24784;45.582;5.276;2024-01-10T10:06:32;122.18;;;47.80;;
39016;SDS011;24784;45.582;5.276;2024-01-10T10:08:59;125.15;;;48.95;;
39016;SDS011;24784;45.582;5.276;2024-01-10T10:11:25;111.57;;;47.30;;
39016;SDS011;24784;45.582;5.276;2024-01-10T10:13:51;121.85;;;48.60;;
39016;SDS011;24784;45.582;5.276;2024-01-10T10:16:22;116.10;;;48.03;;
39016;SDS011;24784;45.582;5.276;2024-01-10T10:18:50;114.47;;;47.47;;
39016;SDS011;24784;45.582;5.276;2024-01-10T10:21:18;117.00;;;47.55;;
39016;SDS011;24784;45.582;5.276;2024-01-10T10:23:56;119.20;;;49.20;;
39016;SDS011;24784;45.582;5.276;2024-01-10T10:26:24;140.05;;;53.03;;
39016;SDS011;24784;45.582;5.276;2024-01-10T10:28:52;130.15;;;53.53;;
39016;SDS011;24784;45.582;5.276;2024-01-10T10:31:18;134.23;;;53.80;;
39016;SDS011;24784;45.582;5.276;2024-01-10T10:33:45;133.05;;;54.53;;
39016;SDS011;24784;45.582;5.276;2024-01-10T10:36:13;132.60;;;54.83;;
39016;SDS011;24784;45.582;5.276;2024-01-10T10:38:39;134.50;;;53.50;;
39016;SDS011;24784;45.582;5.276;2024-01-10T10:41:05;145.00;;;52.22;;
39016;SDS011;24784;45.582;5.276;2024-01-10T10:43:38;139.98;;;54.78;;
39016;SDS011;24784;45.582;5.276;2024-01-10T10:46:04;136.93;;;55.53;;
39016;SDS011;24784;45.582;5.276;2024-01-10T10:48:34;128.52;;;54.60;;
39016;SDS011;24784;45.582;5.276;2024-01-10T10:51:05;138.23;;;55.05;;
39016;SDS011;24784;45.582;5.276;2024-01-10T10:53:32;125.70;;;52.15;;
39016;SDS011;24784;45.582;5.276;2024-01-10T10:55:59;123.68;;;50.58;;
39016;SDS011;24784;45.582;5.276;2024-01-10T10:58:27;133.07;;;52.70;;
39016;SDS011;24784;45.582;5.276;2024-01-10T11:00:53;120.70;;;51.55;;
39016;SDS011;24784;45.582;5.276;2024-01-10T11:03:20;128.70;;;53.38;;
39016;SDS011;24784;45.582;5.276;2024-01-10T11:05:46;132.63;;;53.47;;
39016;SDS011;24784;45.582;5.276;2024-01-10T11:08:12;108.15;;;48.85;;
39016;SDS011;24784;45.582;5.276;2024-01-10T11:10:41;119.60;;;51.03;;
39016;SDS011;24784;45.582;5.276;2024-01-10T11:18:43;144.77;;;57.70;;
39016;SDS011;24784;45.582;5.276;2024-01-10T11:24:05;137.43;;;55.03;;
39016;SDS011;24784;45.582;5.276;2024-01-10T11:26:34;139.82;;;53.53;;
39016;SDS011;24784;45.582;5.276;2024-01-10T11:29:02;142.07;;;55.75;;
39016;SDS011;24784;45.582;5.276;2024-01-10T11:31:30;136.18;;;52.60;;
39016;SDS011;24784;45.582;5.276;2024-01-10T11:34:00;136.40;;;53.08;;
39016;SDS011;24784;45.582;5.276;2024-01-10T11:36:26;128.02;;;51.75;;
39016;SDS011;24784;45.582;5.276;2024-01-10T11:46:38;130.68;;;52.65;;
39016;SDS011;24784;45.582;5.276;2024-01-10T11:49:07;129.60;;;54.80;;
39016;SDS011;24784;45.582;5.276;2024-01-10T11:51:35;129.98;;;52.30;;
39016;SDS011;24784;45.582;5.276;2024-01-10T11:54:01;129.98;;;52.47;;
39016;SDS011;24784;45.582;5.276;2024-01-10T11:59:10;121.30;;;52.83;;
39016;SDS011;24784;45.582;5.276;2024-01-10T12:01:37;128.07;;;53.78;;
39016;SDS011;24784;45.582;5.276;2024-01-10T12:04:03;120.70;;;49.70;;
39016;SDS011;24784;45.582;5.276;2024-01-10T12:06:30;104.40;;;44.83;;
39016;SDS011;24784;45.582;5.276;2024-01-10T12:08:57;84.97;;;39.38;;
39016;SDS011;24784;45.582;5.276;2024-01-10T12:11:24;83.53;;;38.17;;
39016;SDS011;24784;45.582;5.276;2024-01-10T12:13:50;78.93;;;38.58;;
39016;SDS011;24784;45.582;5.276;2024-01-10T12:16:16;73.22;;;35.08;;
39016;SDS011;24784;45.582;5.276;2024-01-10T12:18:43;69.10;;;32.95;;
39016;SDS011;24784;45.582;5.276;2024-01-10T12:21:09;71.93;;;34.05;;
39016;SDS011;24784;45.582;5.276;2024-01-10T12:23:38;71.90;;;34.42;;
39016;SDS011;24784;45.582;5.276;2024-01-10T12:26:08;75.35;;;33.88;;
39016;SDS011;24784;45.582;5.276;2024-01-10T12:28:37;81.95;;;39.47;;
39016;SDS011;24784;45.582;5.276;2024-01-10T12:31:04;72.00;;;35.00;;
39016;SDS011;24784;45.582;5.276;2024-01-10T12:33:33;70.53;;;33.47;;
39016;SDS011;24784;45.582;5.276;2024-01-10T12:36:09;74.70;;;34.25;;
39016;SDS011;24784;45.582;5.276;2024-01-10T12:38:35;70.50;;;33.15;;
39016;SDS011;24784;45.582;5.276;2024-01-10T12:41:04;78.60;;;37.13;;
39016;SDS011;24784;45.582;5.276;2024-01-10T12:43:33;76.95;;;35.05;;
39016;SDS011;24784;45.582;5.276;2024-01-10T12:46:05;58.83;;;27.92;;
39016;SDS011;24784;45.582;5.276;2024-01-10T12:48:32;70.57;;;33.75;;
39016;SDS011;24784;45.582;5.276;2024-01-10T12:51:01;75.13;;;35.30;;
39016;SDS011;24784;45.582;5.276;2024-01-10T12:53:31;72.75;;;33.58;;
39016;SDS011;24784;45.582;5.276;2024-01-10T12:56:01;71.57;;;34.38;;
39016;SDS011;24784;45.582;5.276;2024-01-10T12:58:30;71.72;;;35.38;;
39016;SDS011;24784;45.582;5.276;2024-01-10T13:00:56;71.35;;;34.05;;
39016;SDS011;24784;45.582;5.276;2024-01-10T13:03:22;80.85;;;36.70;;
39016;SDS011;24784;45.582;5.276;2024-01-10T13:05:49;76.30;;;35.35;;
39016;SDS011;24784;45.582;5.276;2024-01-10T13:08:18;81.55;;;37.17;;
39016;SDS011;24784;45.582;5.276;2024-01-10T13:10:47;84.70;;;42.38;;
39016;SDS011;24784;45.582;5.276;2024-01-10T13:13:13;81.32;;;37.88;;
39016;SDS011;24784;45.582;5.276;2024-01-10T13:15:39;95.78;;;40.53;;
39016;SDS011;24784;45.582;5.276;2024-01-10T13:18:05;87.05;;;37.28;;
39016;SDS011;24784;45.582;5.276;2024-01-10T13:20:38;79.97;;;37.58;;
39016;SDS011;24784;45.582;5.276;2024-01-10T13:23:04;93.28;;;40.20;;
39016;SDS011;24784;45.582;5.276;2024-01-10T13:25:30;82.72;;;36.05;;
39016;SDS011;24784;45.582;5.276;2024-01-10T13:27:55;90.47;;;39.20;;
39016;SDS011;24784;45.582;5.276;2024-01-10T13:30:22;76.53;;;36.85;;
39016;SDS011;24784;45.582;5.276;2024-01-10T13:32:48;75.10;;;34.65;;
39016;SDS011;24784;45.582;5.276;2024-01-10T13:35:14;81.78;;;36.75;;
39016;SDS011;24784;45.582;5.276;2024-01-10T13:37:44;74.18;;;35.92;;
39016;SDS011;24784;45.582;5.276;2024-01-10T13:40:10;79.70;;;34.47;;
39016;SDS011;24784;45.582;5.276;2024-01-10T13:42:40;77.80;;;33.85;;
39016;SDS011;24784;45.582;5.276;2024-01-10T13:45:06;75.30;;;35.92;;
39016;SDS011;24784;45.582;5.276;2024-01-10T13:47:33;76.47;;;34.90;;
39016;SDS011;24784;45.582;5.276;2024-01-10T13:49:59;77.22;;;34.15;;
39016;SDS011;24784;45.582;5.276;2024-01-10T13:52:25;85.85;;;34.53;;
39016;SDS011;24784;45.582;5.276;2024-01-10T13:54:51;77.07;;;34.20;;
39016;SDS011;24784;45.582;5.276;2024-01-10T13:57:17;71.88;;;32.92;;
39016;SDS011;24784;45.582;5.276;2024-01-10T13:59:43;71.63;;;33.53;;
39016;SDS011;24784;45.582;5.276;2024-01-10T14:02:09;82.35;;;35.47;;
39016;SDS011;24784;45.582;5.276;2024-01-10T14:04:35;77.93;;;34.63;;
39016;SDS011;24784;45.582;5.276;2024-01-10T14:07:01;70.63;;;33.05;;
39016;SDS011;24784;45.582;5.276;2024-01-10T14:09:28;85.28;;;34.97;;
39016;SDS011;24784;45.582;5.276;2024-01-10T14:11:55;77.45;;;35.15;;
39016;SDS011;24784;45.582;5.276;2024-01-10T14:14:21;74.15;;;33.67;;
39016;SDS011;24784;45.582;5.276;2024-01-10T14:16:47;78.38;;;35.00;;
39016;SDS011;24784;45.582;5.276;2024-01-10T14:19:12;74.85;;;33.20;;
39016;SDS011;24784;45.582;5.276;2024-01-10T14:21:38;75.93;;;33.70;;
39016;SDS011;24784;45.582;5.276;2024-01-10T14:24:04;70.03;;;33.83;;
39016;SDS011;24784;45.582;5.276;2024-01-10T14:26:29;75.45;;;34.40;;
39016;SDS011;24784;45.582;5.276;2024-01-10T14:28:55;76.10;;;34.97;;
39016;SDS011;24784;45.582;5.276;2024-01-10T14:31:22;90.18;;;35.65;;